createdAt,value
2022-11-17T00:02:12.493Z,13.60
2022-11-17T00:07:14.963Z,13.60
2022-11-17T00:12:35.750Z,13.60
2022-11-17T00:17:37.997Z,13.60
2022-11-17T00:22:40.103Z,13.60
2022-11-17T00:27:42.144Z,13.50
2022-11-17T00:38:17.227Z,13.60
2022-11-17T00:43:19.282Z,13.60
2022-11-17T00:48:21.305Z,13.60
2022-11-17T00:53:23.372Z,13.60
2022-11-17T00:58:25.404Z,13.60
2022-11-17T01:03:27.751Z,13.60
2022-11-17T01:08:29.865Z,13.60
2022-11-17T01:13:32.306Z,13.60
2022-11-17T01:18:35.629Z,13.60
2022-11-17T01:23:40.011Z,13.60
2022-11-17T01:28:42.222Z,13.50
2022-11-17T01:33:45.345Z,13.60
2022-11-17T01:38:47.486Z,13.50
2022-11-17T01:43:51.040Z,13.50
2022-11-17T01:48:57.382Z,13.50
2022-11-17T01:54:00.426Z,13.50
2022-11-17T01:59:10.065Z,13.50
2022-11-17T02:04:12.194Z,13.50
2022-11-17T02:09:14.353Z,13.50
2022-11-17T02:14:16.650Z,13.50
2022-11-17T02:19:22.558Z,13.50
2022-11-17T02:29:42.509Z,13.50
2022-11-17T02:35:02.752Z,13.50
2022-11-17T02:40:13.461Z,13.50
2022-11-17T02:45:24.781Z,13.50
2022-11-17T02:50:29.471Z,13.50
2022-11-17T02:55:35.300Z,13.50
2022-11-17T03:00:43.976Z,13.40
2022-11-17T03:06:12.570Z,13.40
2022-11-17T03:11:14.879Z,13.40
2022-11-17T03:16:30.007Z,13.40
2022-11-17T03:21:51.119Z,13.30
2022-11-17T03:27:10.034Z,13.30
2022-11-17T03:32:14.950Z,13.30
2022-11-17T03:37:21.728Z,13.30
2022-11-17T03:42:30.445Z,13.30
2022-11-17T03:47:34.444Z,13.30
2022-11-17T03:52:37.947Z,13.30
2022-11-17T03:58:06.958Z,13.30
2022-11-17T04:03:09.131Z,13.30
2022-11-17T04:08:11.203Z,13.30
2022-11-17T04:13:31.753Z,13.30
2022-11-17T04:18:33.901Z,13.30
2022-11-17T04:23:36.282Z,13.30
2022-11-17T04:28:42.277Z,13.30
2022-11-17T04:33:51.560Z,13.40
2022-11-17T04:38:55.929Z,13.40
2022-11-17T04:43:58.692Z,13.30
2022-11-17T04:49:01.327Z,13.30
2022-11-17T04:59:07.592Z,13.20
2022-11-17T05:04:12.097Z,13.20
2022-11-17T05:09:16.556Z,13.10
2022-11-17T05:14:20.760Z,13.00
2022-11-17T05:19:27.722Z,13.00
2022-11-17T05:29:32.208Z,13.00
2022-11-17T05:39:36.746Z,13.00
2022-11-17T05:49:41.977Z,13.00
2022-11-17T05:54:44.016Z,13.10
2022-11-17T05:59:53.091Z,13.10
2022-11-17T06:09:57.713Z,13.10
2022-11-17T06:14:59.771Z,13.10
2022-11-17T06:20:12.270Z,13.10
2022-11-17T06:25:15.820Z,13.10
2022-11-17T06:30:18.289Z,13.10
2022-11-17T06:35:20.527Z,13.00
2022-11-17T06:40:22.555Z,13.10
2022-11-17T06:45:24.606Z,13.10
2022-11-17T06:50:26.720Z,13.10
2022-11-17T06:55:29.422Z,13.10
2022-11-17T07:00:31.734Z,13.20
2022-11-17T07:05:35.244Z,13.20
2022-11-17T07:10:37.867Z,13.20
2022-11-17T07:15:40.558Z,13.30
2022-11-17T07:20:42.676Z,13.40
2022-11-17T07:25:44.851Z,13.40
2022-11-17T07:30:46.981Z,13.40
2022-11-17T07:35:49.303Z,13.60
2022-11-17T07:45:55.270Z,13.70
2022-11-17T07:51:01.612Z,13.80
2022-11-17T07:56:06.617Z,13.80
2022-11-17T08:01:16.690Z,13.70
2022-11-17T08:06:18.925Z,13.80
2022-11-17T08:11:21.199Z,13.90
2022-11-17T08:16:23.331Z,13.90
2022-11-17T08:21:25.832Z,13.90
2022-11-17T08:26:27.946Z,13.90
2022-11-17T08:31:30.380Z,13.90
2022-11-17T08:36:32.522Z,13.90
2022-11-17T08:41:34.688Z,14.00
2022-11-17T08:46:36.917Z,14.10
2022-11-17T08:51:39.181Z,14.20
2022-11-17T08:56:41.472Z,14.20
2022-11-17T09:01:43.763Z,14.30
2022-11-17T09:06:46.039Z,14.30
2022-11-17T09:11:48.365Z,14.40
2022-11-17T09:16:50.557Z,14.50
2022-11-17T09:21:54.785Z,14.60
2022-11-17T09:26:57.593Z,14.70
2022-11-17T09:31:59.733Z,14.70
2022-11-17T09:42:04.667Z,14.70
2022-11-17T09:47:25.727Z,14.70
2022-11-17T09:53:03.176Z,14.80
2022-11-17T09:58:38.586Z,14.80
2022-11-17T10:03:46.150Z,14.80
2022-11-17T10:09:26.210Z,14.80
2022-11-17T10:14:30.083Z,14.90
2022-11-17T10:19:36.486Z,15.00
2022-11-17T10:24:41.448Z,15.30
2022-11-17T10:30:05.376Z,15.30
2022-11-17T10:35:19.482Z,15.40
2022-11-17T10:45:28.700Z,15.50
2022-11-17T10:50:30.822Z,15.60
2022-11-17T10:55:33.990Z,15.70
2022-11-17T11:00:37.406Z,15.80
2022-11-17T11:05:57.952Z,15.90
2022-11-17T11:11:02.018Z,15.90
2022-11-17T11:16:05.246Z,15.90
2022-11-17T11:21:34.227Z,15.90
2022-11-17T11:26:39.008Z,16.00
2022-11-17T11:32:09.533Z,16.20
2022-11-17T11:37:13.564Z,16.50
2022-11-17T11:42:30.575Z,16.70
2022-11-17T11:48:00.725Z,16.80
2022-11-17T11:53:21.554Z,16.80
2022-11-17T11:58:24.800Z,16.80
2022-11-17T12:03:45.586Z,16.70
2022-11-17T12:09:12.925Z,16.60
2022-11-17T12:14:18.510Z,16.50
2022-11-17T12:19:42.413Z,16.70
2022-11-17T12:24:46.013Z,16.90
2022-11-17T12:35:25.539Z,17.40
2022-11-17T12:40:39.516Z,17.70
2022-11-17T12:46:16.448Z,17.80
2022-11-17T12:51:21.500Z,17.80
2022-11-17T12:56:32.477Z,17.80
2022-11-17T13:01:55.747Z,17.70
2022-11-17T13:07:06.698Z,17.60
2022-11-17T13:12:10.984Z,17.30
2022-11-17T13:17:13.799Z,17.20
2022-11-17T13:22:17.066Z,17.10
2022-11-17T13:27:26.528Z,16.90
2022-11-17T13:32:28.860Z,16.50
2022-11-17T13:37:31.112Z,16.50
2022-11-17T13:42:34.285Z,16.10
2022-11-17T13:47:36.361Z,15.80
2022-11-17T13:52:45.408Z,15.90
2022-11-17T13:58:00.248Z,15.40
2022-11-17T14:03:05.454Z,15.30
2022-11-17T14:08:22.147Z,15.10
2022-11-17T14:13:29.846Z,15.10
2022-11-17T14:18:34.323Z,14.80
2022-11-17T14:23:36.481Z,14.70
2022-11-17T14:28:38.615Z,14.70
2022-11-17T14:33:41.046Z,14.70
2022-11-17T14:38:46.930Z,14.60
2022-11-17T14:43:50.365Z,14.60
2022-11-17T14:48:53.764Z,14.70
2022-11-17T14:53:55.878Z,14.60
2022-11-17T14:58:59.735Z,14.50
2022-11-17T15:04:20.789Z,14.60
2022-11-17T15:09:25.585Z,14.60
2022-11-17T15:14:27.911Z,14.50
2022-11-17T15:19:30.046Z,14.40
2022-11-17T15:24:32.237Z,14.20
2022-11-17T15:29:34.726Z,14.10
2022-11-17T15:34:36.820Z,14.10
2022-11-17T15:39:38.931Z,14.00
2022-11-17T15:49:43.691Z,13.90
2022-11-17T15:54:45.790Z,13.90
2022-11-17T16:04:50.381Z,13.70
2022-11-17T16:09:52.772Z,13.60
2022-11-17T16:14:54.880Z,13.50
2022-11-17T16:19:56.991Z,13.40
2022-11-17T16:24:59.129Z,13.40
2022-11-17T16:30:01.762Z,13.20
2022-11-17T16:35:03.871Z,13.20
2022-11-17T16:40:06.872Z,13.20
2022-11-17T16:55:14.564Z,13.40
2022-11-17T17:00:17.755Z,13.40
2022-11-17T17:05:20.211Z,13.40
2022-11-17T17:15:25.106Z,13.40
2022-11-17T17:20:27.251Z,13.40
2022-11-17T17:25:29.435Z,13.40
2022-11-17T17:30:31.501Z,13.40
2022-11-17T17:35:34.662Z,13.50
2022-11-17T17:40:36.775Z,13.50
2022-11-17T17:45:38.852Z,13.50
2022-11-17T17:50:41.021Z,13.60
2022-11-17T17:55:45.652Z,13.60
2022-11-17T18:00:49.716Z,13.60
2022-11-17T18:05:51.817Z,13.60
2022-11-17T18:10:59.119Z,13.60
2022-11-17T18:16:22.175Z,13.70
2022-11-17T18:21:24.789Z,14.00
2022-11-17T18:26:32.897Z,13.70
2022-11-17T18:31:36.981Z,13.80
2022-11-17T18:36:39.049Z,13.70
2022-11-17T18:41:41.255Z,13.70
2022-11-17T18:46:43.471Z,13.70
2022-11-17T18:51:46.110Z,13.60
2022-11-17T18:56:49.938Z,13.50
2022-11-17T19:01:52.089Z,13.50
2022-11-17T19:06:54.201Z,13.40
2022-11-17T19:11:56.439Z,13.40
2022-11-17T19:16:58.528Z,13.40
2022-11-17T19:27:03.699Z,13.30
2022-11-17T19:32:05.797Z,13.10
2022-11-17T19:37:07.898Z,13.10
2022-11-17T19:42:09.995Z,13.00
2022-11-17T19:47:12.084Z,12.90
2022-11-17T19:52:14.565Z,12.90
2022-11-17T19:57:16.789Z,12.90
2022-11-17T20:02:20.009Z,12.90
2022-11-17T20:07:22.185Z,12.90
2022-11-17T20:12:24.358Z,12.90
2022-11-17T20:17:26.621Z,12.90
2022-11-17T20:22:28.751Z,13.00
2022-11-17T20:27:31.321Z,13.00
2022-11-17T20:32:35.359Z,13.00
2022-11-17T20:37:37.549Z,13.10
2022-11-17T20:42:39.659Z,13.10
2022-11-17T20:47:41.817Z,13.10
2022-11-17T20:52:43.899Z,13.10
2022-11-17T20:57:46.054Z,13.20
2022-11-17T21:02:49.616Z,13.20
2022-11-17T21:07:51.686Z,13.20
2022-11-17T21:12:53.759Z,13.20
2022-11-17T21:18:14.544Z,13.30
2022-11-17T21:23:16.707Z,13.20
2022-11-17T21:28:18.881Z,13.30
2022-11-17T21:33:20.971Z,13.20
2022-11-17T21:38:23.144Z,13.20
2022-11-17T21:43:25.195Z,13.30
2022-11-17T21:48:27.263Z,13.30
2022-11-17T21:53:30.398Z,13.30
2022-11-17T21:58:33.719Z,13.30
2022-11-17T22:03:36.587Z,13.30
2022-11-17T22:08:40.785Z,13.30
2022-11-17T22:13:43.013Z,13.30
2022-11-17T22:18:45.057Z,13.30
2022-11-17T22:23:47.151Z,13.30
2022-11-17T22:28:54.130Z,13.30
2022-11-17T22:33:56.224Z,13.30
2022-11-17T22:38:58.376Z,13.20
2022-11-17T22:49:03.210Z,13.20
2022-11-17T22:54:06.585Z,13.10
2022-11-17T22:59:09.049Z,13.10
2022-11-17T23:04:12.198Z,13.00
2022-11-17T23:09:14.465Z,13.00
2022-11-17T23:14:16.845Z,13.00
2022-11-17T23:19:19.099Z,13.00
2022-11-17T23:29:23.932Z,12.90
2022-11-17T23:34:27.572Z,12.90
2022-11-17T23:39:29.623Z,12.90
2022-11-17T23:44:31.844Z,12.90
2022-11-17T23:49:33.908Z,12.90
2022-11-17T23:54:35.955Z,12.90
2022-11-17T23:59:38.278Z,12.90
